Time;durP1;ratioP1;P1;durP2;ratioP2;P2;SDS_P1;SDS_P2;PMS_P1;PMS_P2;Temp;Humidity;BMP_temperature;BMP_pressure;BME280_temperature;BME280_humidity;BME280_pressure;Samples;Min_cycle;Max_cycle;Signal;HPM_P1;HPM_P2
2023/03/24 00:01:00;;;;;;;;;;;11.60;99.90;;;;;;5051336;28;19920;-37
2023/03/24 00:03:28;;;;;;;;;;;11.60;99.90;;;;;;5052775;28;20348;-36
2023/03/24 00:05:57;;;;;;;;;;;11.60;99.90;;;;;;5050269;28;19967;-36
2023/03/24 00:08:23;;;;;;;;;;;11.70;99.90;;;;;;5055484;28;19921;-37
2023/03/24 00:10:52;;;;;;;;;;;11.60;99.90;;;;;;5049529;28;19970;-35
2023/03/24 00:13:18;;;;;;;;;;;11.60;99.90;;;;;;5050874;28;20364;-36
2023/03/24 00:15:47;;;;;;;;;;;11.50;99.90;;;;;;5050467;28;19921;-36
2023/03/24 00:18:14;;;;;;;;;;;11.50;99.90;;;;;;5060750;28;19921;-36
2023/03/24 00:20:41;;;;;;;;;;;11.50;99.90;;;;;;5051228;28;19924;-35
2023/03/24 00:23:07;;;;;;;;;;;11.50;99.90;;;;;;5050341;28;20307;-36
2023/03/24 00:25:35;;;;;;;;;;;11.50;99.90;;;;;;5058859;28;19975;-35
2023/03/24 00:28:04;;;;;;;;;;;11.50;99.90;;;;;;5048959;28;19921;-36
2023/03/24 00:30:32;;;;;;;;;;;11.50;99.90;;;;;;5049906;28;19921;-36
2023/03/24 00:33:00;;;;;;;;;;;11.50;99.90;;;;;;5050086;28;20012;-36
2023/03/24 00:35:27;;;;;;;;;;;11.50;99.90;;;;;;5051465;28;19986;-36
2023/03/24 00:37:53;;;;;;;;;;;11.50;99.90;;;;;;5050250;28;19970;-36
2023/03/24 00:40:20;;;;;;;;;;;11.50;99.90;;;;;;5059354;28;20007;-37
2023/03/24 00:42:47;;;;;;;;;;;11.50;99.90;;;;;;5062703;28;19983;-35
2023/03/24 00:45:17;;;;;;;;;;;11.50;99.90;;;;;;5050928;28;19950;-35
2023/03/24 00:47:44;;;;;;;;;;;11.50;99.90;;;;;;5052803;28;19927;-35
2023/03/24 00:50:12;;;;;;;;;;;11.50;99.90;;;;;;5054110;28;20378;-36
2023/03/24 00:52:43;;;;;;;;;;;11.50;99.90;;;;;;5048345;28;19964;-37
2023/03/24 00:55:12;;;;;;;;;;;11.50;99.90;;;;;;5053933;28;19927;-37
2023/03/24 00:57:39;;;;;;;;;;;11.50;99.90;;;;;;5053838;28;19921;-36
2023/03/24 01:00:11;;;;;;;;;;;11.50;99.90;;;;;;5052546;28;19925;-36
2023/03/24 01:02:39;;;;;;;;;;;11.50;99.90;;;;;;5053625;28;19925;-36
2023/03/24 01:05:07;;;;;;;;;;;11.50;99.90;;;;;;5053740;28;19974;-36
2023/03/24 01:07:34;;;;;;;;;;;11.50;99.90;;;;;;5067980;28;19963;-36
2023/03/24 01:10:01;;;;;;;;;;;11.50;99.90;;;;;;5053086;28;20019;-37
2023/03/24 01:12:28;;;;;;;;;;;11.50;99.90;;;;;;5053676;28;19960;-37
2023/03/24 01:14:55;;;;;;;;;;;11.50;99.90;;;;;;5058698;28;19925;-36
2023/03/24 01:17:24;;;;;;;;;;;11.50;99.90;;;;;;5063827;28;19982;-36
2023/03/24 01:19:52;;;;;;;;;;;11.50;99.90;;;;;;5053477;28;19927;-36
2023/03/24 01:22:19;;;;;;;;;;;11.50;99.90;;;;;;5042754;28;19971;-36
2023/03/24 01:24:46;;;;;;;;;;;11.50;99.90;;;;;;5052818;28;20284;-36
2023/03/24 01:27:13;;;;;;;;;;;11.60;99.90;;;;;;5040886;28;19956;-37
2023/03/24 01:29:40;;;;;;;;;;;11.50;99.90;;;;;;5055172;28;19928;-36
2023/03/24 01:32:06;;;;;;;;;;;11.50;99.90;;;;;;5053082;28;20015;-36
2023/03/24 01:34:33;;;;;;;;;;;11.50;99.90;;;;;;5053857;28;19951;-36
2023/03/24 01:37:01;;;;;;;;;;;11.50;99.90;;;;;;5046895;28;19967;-37
2023/03/24 01:39:40;;;;;;;;;;;11.50;99.90;;;;;;5046948;28;19925;-36
2023/03/24 01:42:09;;;;;;;;;;;11.50;99.90;;;;;;5054917;28;20462;-36
2023/03/24 01:44:36;;;;;;;;;;;11.50;99.90;;;;;;5054792;28;19928;-36
2023/03/24 01:47:03;;;;;;;;;;;11.50;99.90;;;;;;5053105;28;20007;-37
2023/03/24 01:49:31;;;;;;;;;;;11.50;99.90;;;;;;5044380;28;19924;-37
2023/03/24 01:51:59;;;;;;;;;;;11.50;99.90;;;;;;5053833;28;19954;-37
2023/03/24 01:54:28;;;;;;;;;;;11.50;99.90;;;;;;5052891;28;20397;-37
2023/03/24 01:56:57;;;;;;;;;;;11.50;99.90;;;;;;5053631;28;19960;-37
2023/03/24 01:59:24;;;;;;;;;;;11.50;99.90;;;;;;5060136;28;20376;-37
2023/03/24 02:01:53;;;;;;;;;;;11.50;99.90;;;;;;5052685;28;19921;-37
2023/03/24 02:04:20;;;;;;;;;;;11.60;99.90;;;;;;5058729;28;19999;-37
2023/03/24 02:06:47;;;;;;;;;;;11.60;99.90;;;;;;5056958;28;19962;-37
2023/03/24 02:09:14;;;;;;;;;;;11.60;99.90;;;;;;5056465;28;19991;-36
2023/03/24 02:11:42;;;;;;;;;;;11.60;99.90;;;;;;5060511;28;19924;-36
2023/03/24 02:14:09;;;;;;;;;;;11.60;99.90;;;;;;5057333;28;19925;-36
2023/03/24 02:16:41;;;;;;;;;;;11.60;99.90;;;;;;5051579;28;20416;-36
2023/03/24 02:19:14;;;;;;;;;;;11.60;99.90;;;;;;5064427;28;19920;-36
2023/03/24 02:21:54;;;;;;;;;;;11.70;99.90;;;;;;5054941;28;20414;-37
2023/03/24 02:24:30;;;;;;;;;;;11.70;99.90;;;;;;5049207;28;19960;-37
2023/03/24 02:27:03;;;;;;;;;;;11.70;99.90;;;;;;5050377;28;19964;-37
2023/03/24 02:29:43;;;;;;;;;;;11.60;99.90;;;;;;5052935;28;20300;-37
2023/03/24 02:32:15;;;;;;;;;;;11.60;99.90;;;;;;5052978;28;19967;-37
2023/03/24 02:34:48;;;;;;;;;;;11.70;99.90;;;;;;5063937;28;19925;-37
2023/03/24 02:37:26;;;;;;;;;;;11.70;99.90;;;;;;5061789;28;19975;-37
2023/03/24 02:40:09;;;;;;;;;;;11.70;99.90;;;;;;5052284;28;19944;-37
2023/03/24 02:42:41;;;;;;;;;;;11.70;99.90;;;;;;5051824;28;19991;-37
2023/03/24 02:45:10;;;;;;;;;;;11.70;99.90;;;;;;5049578;28;20377;-37
2023/03/24 02:47:38;;;;;;;;;;;11.70;99.90;;;;;;5050896;28;19928;-37
2023/03/24 02:50:06;;;;;;;;;;;11.70;99.90;;;;;;5060918;28;20672;-37
2023/03/24 02:52:35;;;;;;;;;;;11.70;99.90;;;;;;5056095;28;19920;-37
2023/03/24 02:55:02;;;;;;;;;;;11.70;99.90;;;;;;5064248;28;19921;-37
2023/03/24 02:57:30;;;;;;;;;;;11.70;99.90;;;;;;5052301;28;19925;-38
2023/03/24 02:59:59;;;;;;;;;;;11.70;99.90;;;;;;5050897;28;19925;-37
2023/03/24 03:02:26;;;;;;;;;;;11.70;99.90;;;;;;5050769;28;19921;-37
2023/03/24 03:04:54;;;;;;;;;;;11.70;99.90;;;;;;5050779;28;19975;-37
2023/03/24 03:07:21;;;;;;;;;;;11.80;99.90;;;;;;5059172;28;19920;-37
2023/03/24 03:09:49;;;;;;;;;;;11.80;99.90;;;;;;5059384;28;19971;-38
2023/03/24 03:12:15;;;;;;;;;;;11.80;99.90;;;;;;5052022;28;20011;-37
2023/03/24 03:14:44;;;;;;;;;;;11.80;99.90;;;;;;5050857;28;19928;-37
2023/03/24 03:17:13;;;;;;;;;;;11.80;99.90;;;;;;5050110;28;19921;-37
2023/03/24 03:19:40;;;;;;;;;;;11.80;99.90;;;;;;5069032;28;20339;-37
2023/03/24 03:22:08;;;;;;;;;;;11.80;99.90;;;;;;5052282;28;20426;-37
2023/03/24 03:24:38;;;;;;;;;;;11.90;99.90;;;;;;5056144;28;20068;-37
2023/03/24 03:27:07;;;;;;;;;;;11.90;99.90;;;;;;5058665;28;19920;-37
2023/03/24 03:29:34;;;;;;;;;;;11.90;99.90;;;;;;5049388;28;20019;-37
2023/03/24 03:32:06;;;;;;;;;;;11.90;99.90;;;;;;5050672;28;19920;-38
2023/03/24 03:34:36;;;;;;;;;;;11.90;99.90;;;;;;5049939;28;19970;-37
2023/03/24 03:37:04;;;;;;;;;;;11.90;99.90;;;;;;5051934;28;19974;-37
2023/03/24 03:39:32;;;;;;;;;;;11.90;99.90;;;;;;5065015;28;20368;-37
2023/03/24 03:41:58;;;;;;;;;;;11.90;99.90;;;;;;5051132;28;19979;-37
2023/03/24 03:44:25;;;;;;;;;;;11.90;99.90;;;;;;5052797;28;19967;-38
2023/03/24 03:46:52;;;;;;;;;;;11.90;99.90;;;;;;5036091;28;19944;-37
2023/03/24 03:49:18;;;;;;;;;;;11.80;99.90;;;;;;5049570;28;19929;-37
2023/03/24 03:51:46;;;;;;;;;;;11.80;99.90;;;;;;5066712;28;20003;-37
2023/03/24 03:54:13;;;;;;;;;;;11.70;99.90;;;;;;5049984;28;20380;-36
2023/03/24 03:56:40;;;;;;;;;;;11.70;99.90;;;;;;5051231;28;20014;-37
2023/03/24 03:59:07;;;;;;;;;;;11.60;99.90;;;;;;5051645;28;19943;-36
2023/03/24 04:01:35;;;;;;;;;;;11.50;99.90;;;;;;5053402;28;20339;-38
2023/03/24 04:04:06;;;;;;;;;;;11.40;99.90;;;;;;5067930;28;19921;-37
2023/03/24 04:06:35;;;;;;;;;;;11.40;99.90;;;;;;5051241;28;19921;-37
2023/03/24 04:09:05;;;;;;;;;;;11.30;99.90;;;;;;5051874;28;20335;-37
2023/03/24 04:11:55;;;;;;;;;;;11.20;99.90;;;;;;5065926;28;19998;-37
2023/03/24 04:14:33;;;;;;;;;;;11.10;99.90;;;;;;5050672;28;19920;-37
2023/03/24 04:17:01;;;;;;;;;;;11.10;99.90;;;;;;5056101;28;20364;-37
2023/03/24 04:19:32;;;;;;;;;;;11.00;99.90;;;;;;5057969;28;20443;-36
2023/03/24 04:22:04;;;;;;;;;;;11.00;99.90;;;;;;5052454;28;20016;-36
2023/03/24 04:24:35;;;;;;;;;;;10.90;99.90;;;;;;5062001;28;20346;-36
2023/03/24 04:27:05;;;;;;;;;;;10.90;99.90;;;;;;5054808;28;19979;-36
2023/03/24 04:29:33;;;;;;;;;;;10.90;99.90;;;;;;5054005;28;19927;-36
2023/03/24 04:32:01;;;;;;;;;;;10.90;99.90;;;;;;5054117;28;19921;-36
2023/03/24 04:34:29;;;;;;;;;;;10.80;99.90;;;;;;5053911;28;20007;-36
2023/03/24 04:37:01;;;;;;;;;;;10.80;99.90;;;;;;5055198;28;20418;-36
2023/03/24 04:39:28;;;;;;;;;;;10.80;99.90;;;;;;5057650;28;19921;-36
2023/03/24 04:41:57;;;;;;;;;;;10.70;99.90;;;;;;5055781;28;19974;-36
2023/03/24 04:44:23;;;;;;;;;;;10.70;99.90;;;;;;5055381;28;19921;-36
2023/03/24 04:46:50;;;;;;;;;;;10.60;99.90;;;;;;5054918;28;20341;-36
2023/03/24 04:49:18;;;;;;;;;;;10.60;99.90;;;;;;5057344;28;19956;-36
2023/03/24 04:51:44;;;;;;;;;;;10.50;99.90;;;;;;5052784;28;20352;-36
2023/03/24 04:54:11;;;;;;;;;;;10.60;99.90;;;;;;5054883;28;19925;-36
2023/03/24 04:56:39;;;;;;;;;;;10.50;99.90;;;;;;5054546;28;19967;-36
2023/03/24 04:59:07;;;;;;;;;;;10.50;99.90;;;;;;5069600;28;19920;-36
2023/03/24 05:01:36;;;;;;;;;;;10.50;99.90;;;;;;5057322;28;19973;-36
2023/03/24 05:04:03;;;;;;;;;;;10.40;99.90;;;;;;5054576;28;19920;-36
2023/03/24 05:06:29;;;;;;;;;;;10.40;99.90;;;;;;5055267;28;19921;-36
2023/03/24 05:08:57;;;;;;;;;;;10.40;99.90;;;;;;5054016;28;19959;-36
2023/03/24 05:11:24;;;;;;;;;;;10.30;99.90;;;;;;5054845;28;20020;-36
2023/03/24 05:13:51;;;;;;;;;;;10.30;99.90;;;;;;5056627;28;19935;-36
2023/03/24 05:16:19;;;;;;;;;;;10.30;99.90;;;;;;5059354;28;19929;-36
2023/03/24 05:18:46;;;;;;;;;;;10.30;99.90;;;;;;5051926;28;19928;-36
2023/03/24 05:21:12;;;;;;;;;;;10.30;99.90;;;;;;5052192;28;20338;-36
2023/03/24 05:23:39;;;;;;;;;;;10.20;99.90;;;;;;5052295;28;20359;-36
2023/03/24 05:26:06;;;;;;;;;;;10.20;99.90;;;;;;5053426;28;19928;-36
2023/03/24 05:28:32;;;;;;;;;;;10.20;99.90;;;;;;5068901;28;19920;-36
2023/03/24 05:31:00;;;;;;;;;;;10.20;99.90;;;;;;5051835;28;19921;-36
2023/03/24 05:33:28;;;;;;;;;;;10.10;99.90;;;;;;5052774;28;19921;-36
2023/03/24 05:35:54;;;;;;;;;;;10.10;99.90;;;;;;5055436;28;19927;-36
2023/03/24 05:38:21;;;;;;;;;;;10.10;99.90;;;;;;5058500;28;19921;-36
2023/03/24 05:40:48;;;;;;;;;;;10.10;99.90;;;;;;5052949;28;20273;-36
2023/03/24 05:43:14;;;;;;;;;;;10.10;99.90;;;;;;5049971;28;19920;-36
2023/03/24 05:45:41;;;;;;;;;;;10.00;99.90;;;;;;5047886;28;19925;-36
2023/03/24 05:48:08;;;;;;;;;;;10.00;99.90;;;;;;5047468;28;19972;-36
2023/03/24 05:50:36;;;;;;;;;;;9.90;99.90;;;;;;5068217;28;19982;-36
2023/03/24 05:53:02;;;;;;;;;;;9.90;99.90;;;;;;5050706;28;19971;-36
2023/03/24 05:55:29;;;;;;;;;;;9.80;99.90;;;;;;5049827;28;20053;-36
2023/03/24 05:57:56;;;;;;;;;;;9.80;99.90;;;;;;5045424;28;20011;-36
2023/03/24 06:00:23;;;;;;;;;;;9.80;99.90;;;;;;5050558;28;19947;-36
2023/03/24 06:02:50;;;;;;;;;;;9.70;99.90;;;;;;5052516;28;19932;-36
2023/03/24 06:05:16;;;;;;;;;;;9.70;99.90;;;;;;5053775;28;19924;-36
2023/03/24 06:07:44;;;;;;;;;;;9.70;99.90;;;;;;5057845;28;19920;-36
2023/03/24 06:10:13;;;;;;;;;;;9.70;99.90;;;;;;5052252;28;20388;-36
2023/03/24 06:12:39;;;;;;;;;;;9.70;99.90;;;;;;5046323;28;19968;-36
2023/03/24 06:15:07;;;;;;;;;;;9.70;99.90;;;;;;5048126;28;19929;-36
2023/03/24 06:17:33;;;;;;;;;;;9.70;99.90;;;;;;5052526;28;19982;-36
2023/03/24 06:20:04;;;;;;;;;;;9.70;99.90;;;;;;5052374;28;19964;-36
2023/03/24 06:22:31;;;;;;;;;;;9.70;99.90;;;;;;5058347;28;19920;-36
2023/03/24 06:24:59;;;;;;;;;;;9.70;99.90;;;;;;5052820;28;19920;-36
2023/03/24 06:27:28;;;;;;;;;;;9.70;99.90;;;;;;5054463;28;19920;-36
2023/03/24 06:29:55;;;;;;;;;;;9.70;99.90;;;;;;5072295;28;19921;-36
2023/03/24 06:32:22;;;;;;;;;;;9.70;99.90;;;;;;5052448;28;19932;-35
2023/03/24 06:34:49;;;;;;;;;;;9.80;99.90;;;;;;5066205;28;19928;-36
2023/03/24 06:37:15;;;;;;;;;;;9.80;99.90;;;;;;5059774;28;20380;-36
2023/03/24 06:39:42;;;;;;;;;;;9.80;99.90;;;;;;5049275;28;19970;-36
2023/03/24 06:42:10;;;;;;;;;;;9.80;99.90;;;;;;5049102;28;19920;-36
2023/03/24 06:44:37;;;;;;;;;;;9.90;99.90;;;;;;5050523;28;19968;-36
2023/03/24 06:47:03;;;;;;;;;;;9.90;99.90;;;;;;5047176;28;19997;-37
2023/03/24 06:49:30;;;;;;;;;;;9.90;99.90;;;;;;5050128;28;20602;-36
2023/03/24 06:51:56;;;;;;;;;;;10.00;99.90;;;;;;5047579;28;20950;-36
2023/03/24 06:54:23;;;;;;;;;;;10.00;99.90;;;;;;5051229;28;20322;-36
2023/03/24 06:56:50;;;;;;;;;;;10.00;99.90;;;;;;5052693;28;19971;-36
2023/03/24 06:59:22;;;;;;;;;;;10.00;99.90;;;;;;5050835;28;20050;-36
2023/03/24 07:01:49;;;;;;;;;;;10.10;99.90;;;;;;5055362;28;20276;-36
2023/03/24 07:04:15;;;;;;;;;;;10.10;99.90;;;;;;5054376;28;20283;-36
2023/03/24 07:06:42;;;;;;;;;;;10.10;99.90;;;;;;5057462;28;19964;-36
2023/03/24 07:09:09;;;;;;;;;;;10.10;99.90;;;;;;5061482;28;20332;-36
2023/03/24 07:11:35;;;;;;;;;;;10.10;99.90;;;;;;5052997;28;19921;-36
2023/03/24 07:14:02;;;;;;;;;;;10.10;99.90;;;;;;5050897;28;19924;-36
2023/03/24 07:16:30;;;;;;;;;;;10.10;99.90;;;;;;5050337;28;19983;-36
2023/03/24 07:18:57;;;;;;;;;;;10.10;99.90;;;;;;5049373;28;19921;-36
2023/03/24 07:21:24;;;;;;;;;;;10.20;99.90;;;;;;5049350;28;19978;-36
2023/03/24 07:23:50;;;;;;;;;;;10.20;99.90;;;;;;5050439;28;19924;-36
2023/03/24 07:26:17;;;;;;;;;;;10.20;99.90;;;;;;5050384;28;19928;-36
2023/03/24 07:28:43;;;;;;;;;;;10.20;99.90;;;;;;5049112;28;20430;-36
2023/03/24 07:31:11;;;;;;;;;;;10.20;99.90;;;;;;5050173;28;19971;-36
2023/03/24 07:33:39;;;;;;;;;;;10.20;99.90;;;;;;5049395;28;20003;-36
2023/03/24 07:36:06;;;;;;;;;;;10.20;99.90;;;;;;5048795;28;20228;-39
2023/03/24 07:38:33;;;;;;;;;;;10.30;99.90;;;;;;5048963;28;19927;-35
2023/03/24 07:40:59;;;;;;;;;;;10.30;99.90;;;;;;5047923;28;20376;-36
2023/03/24 07:43:26;;;;;;;;;;;10.30;99.90;;;;;;5050835;28;19928;-36
2023/03/24 07:45:53;;;;;;;;;;;10.30;99.90;;;;;;5051220;28;19924;-35
2023/03/24 07:48:19;;;;;;;;;;;10.40;99.90;;;;;;5046893;28;19924;-36
2023/03/24 07:50:47;;;;;;;;;;;10.50;99.90;;;;;;5046922;28;19920;-36
2023/03/24 07:53:18;;;;;;;;;;;10.50;99.90;;;;;;5036594;28;19925;-36
2023/03/24 07:55:45;;;;;;;;;;;10.70;99.90;;;;;;5052472;28;19925;-36
2023/03/24 07:58:12;;;;;;;;;;;10.70;99.90;;;;;;5049352;28;19925;-35
2023/03/24 08:00:38;;;;;;;;;;;10.80;99.90;;;;;;5058603;28;20341;-36
2023/03/24 08:03:08;;;;;;;;;;;10.80;99.90;;;;;;5050067;28;20326;-36
2023/03/24 08:05:36;;;;;;;;;;;10.90;99.90;;;;;;5056609;28;20342;-35
2023/03/24 08:08:05;;;;;;;;;;;11.00;99.90;;;;;;5049093;28;19924;-35
2023/03/24 08:10:32;;;;;;;;;;;11.20;99.90;;;;;;5049154;28;19929;-36
2023/03/24 08:12:59;;;;;;;;;;;11.20;99.90;;;;;;5047745;28;19932;-35
2023/03/24 08:15:25;;;;;;;;;;;11.20;99.90;;;;;;5048102;28;19928;-35
2023/03/24 08:17:52;;;;;;;;;;;11.30;99.90;;;;;;5054540;28;19966;-35
2023/03/24 08:20:20;;;;;;;;;;;11.30;99.90;;;;;;5050541;28;19997;-36
2023/03/24 08:22:48;;;;;;;;;;;11.30;99.90;;;;;;5048052;28;19928;-35
2023/03/24 08:25:16;;;;;;;;;;;11.30;99.90;;;;;;5049085;28;19928;-35
2023/03/24 08:27:43;;;;;;;;;;;11.30;99.90;;;;;;5065410;28;19924;-35
2023/03/24 08:30:12;;;;;;;;;;;11.30;99.90;;;;;;5041660;28;19927;-35
2023/03/24 08:32:40;;;;;;;;;;;11.20;99.90;;;;;;5030398;28;19975;-35
2023/03/24 08:35:06;;;;;;;;;;;11.20;99.90;;;;;;5058160;28;19967;-36
2023/03/24 08:37:33;;;;;;;;;;;11.30;99.90;;;;;;5049774;28;20353;-35
2023/03/24 08:40:04;;;;;;;;;;;11.30;99.90;;;;;;5049628;28;19928;-35
2023/03/24 08:42:32;;;;;;;;;;;11.40;99.90;;;;;;5049199;28;19920;-35
2023/03/24 08:44:58;;;;;;;;;;;11.50;99.90;;;;;;5048417;28;20380;-35
2023/03/24 08:47:25;;;;;;;;;;;11.60;99.90;;;;;;5050153;28;19979;-35
2023/03/24 08:49:56;;;;;;;;;;;11.80;99.90;;;;;;5051984;28;19925;-35
2023/03/24 08:52:23;;;;;;;;;;;11.90;99.90;;;;;;5069908;28;19993;-35
2023/03/24 08:54:50;;;;;;;;;;;12.10;99.90;;;;;;5062504;28;19924;-34
2023/03/24 08:57:17;;;;;;;;;;;12.20;99.90;;;;;;5051804;28;19920;-35
2023/03/24 08:59:45;;;;;;;;;;;12.30;99.90;;;;;;5061512;28;20424;-35
2023/03/24 09:02:12;;;;;;;;;;;12.50;99.90;;;;;;5050457;28;19964;-36
2023/03/24 09:04:38;;;;;;;;;;;12.60;99.90;;;;;;5061547;28;20372;-35
2023/03/24 09:07:05;;;;;;;;;;;12.70;99.90;;;;;;5059837;28;19929;-36
2023/03/24 09:09:33;;;;;;;;;;;12.70;99.90;;;;;;5051723;28;19929;-35
2023/03/24 09:11:59;;;;;;;;;;;12.70;99.90;;;;;;5050273;28;19960;-35
2023/03/24 09:14:26;;;;;;;;;;;12.60;99.90;;;;;;5054394;28;19982;-35
2023/03/24 09:16:55;;;;;;;;;;;12.30;99.90;;;;;;5051660;28;19951;-36
2023/03/24 09:19:21;;;;;;;;;;;12.20;99.90;;;;;;5054722;28;19928;-35
2023/03/24 09:21:48;;;;;;;;;;;12.10;99.90;;;;;;5034045;28;19921;-35
2023/03/24 09:24:15;;;;;;;;;;;12.20;99.90;;;;;;5038868;28;19973;-36
2023/03/24 09:26:41;;;;;;;;;;;12.20;99.90;;;;;;5052396;28;19920;-36
2023/03/24 09:29:08;;;;;;;;;;;12.30;99.90;;;;;;5052077;28;19921;-35
2023/03/24 09:31:35;;;;;;;;;;;12.30;99.90;;;;;;5052359;28;19977;-35
2023/03/24 09:34:03;;;;;;;;;;;12.30;99.90;;;;;;5052015;28;19925;-35
2023/03/24 09:36:29;;;;;;;;;;;12.30;99.90;;;;;;5053145;28;19921;-35
2023/03/24 09:38:56;;;;;;;;;;;12.40;99.90;;;;;;5052495;28;20377;-36
2023/03/24 09:41:24;;;;;;;;;;;12.50;99.90;;;;;;5053488;28;20376;-35
2023/03/24 09:43:52;;;;;;;;;;;12.50;99.90;;;;;;5072145;28;19920;-36
2023/03/24 09:46:20;;;;;;;;;;;12.60;99.90;;;;;;5053497;28;19962;-35
2023/03/24 09:48:48;;;;;;;;;;;12.70;99.90;;;;;;5052245;28;19960;-35
2023/03/24 09:51:18;;;;;;;;;;;12.70;99.90;;;;;;5053358;28;19925;-35
2023/03/24 09:53:46;;;;;;;;;;;12.70;99.90;;;;;;5052626;28;19943;-36
2023/03/24 09:56:13;;;;;;;;;;;12.80;99.90;;;;;;5062835;28;20014;-35
2023/03/24 09:58:40;;;;;;;;;;;12.90;99.90;;;;;;5052817;28;19944;-36
2023/03/24 10:01:10;;;;;;;;;;;13.00;99.90;;;;;;5052632;28;19921;-36
2023/03/24 10:03:37;;;;;;;;;;;13.10;99.90;;;;;;5052406;28;19967;-36
2023/03/24 10:06:05;;;;;;;;;;;13.30;99.90;;;;;;5051667;28;19920;-35
2023/03/24 10:08:34;;;;;;;;;;;13.30;99.90;;;;;;5051014;28;19974;-36
2023/03/24 10:11:02;;;;;;;;;;;13.40;99.90;;;;;;5051364;28;19959;-36
2023/03/24 10:13:30;;;;;;;;;;;13.70;99.90;;;;;;5047683;28;19924;-36
2023/03/24 10:15:59;;;;;;;;;;;13.80;99.90;;;;;;5050954;28;19921;-36
2023/03/24 10:18:30;;;;;;;;;;;13.90;99.90;;;;;;5048573;28;19975;-35
2023/03/24 10:20:58;;;;;;;;;;;14.00;99.90;;;;;;5052438;28;19924;-36
2023/03/24 10:23:27;;;;;;;;;;;14.10;99.90;;;;;;5049293;28;19925;-35
2023/03/24 10:25:56;;;;;;;;;;;14.20;99.90;;;;;;5063767;28;19971;-36
2023/03/24 10:28:23;;;;;;;;;;;14.20;99.90;;;;;;5050599;28;19968;-35
2023/03/24 10:30:50;;;;;;;;;;;14.20;99.90;;;;;;5049827;28;19921;-36
2023/03/24 10:33:17;;;;;;;;;;;14.20;99.90;;;;;;5049943;28;19921;-36
2023/03/24 10:35:46;;;;;;;;;;;14.40;99.90;;;;;;5050396;28;20167;-35
2023/03/24 10:38:15;;;;;;;;;;;14.50;99.90;;;;;;5050242;28;19921;-35
2023/03/24 10:40:42;;;;;;;;;;;14.60;99.90;;;;;;5052202;28;20415;-35
2023/03/24 10:43:10;;;;;;;;;;;14.60;99.90;;;;;;5050146;28;19982;-35
2023/03/24 10:45:37;;;;;;;;;;;14.60;99.90;;;;;;5049818;28;19920;-35
2023/03/24 10:48:03;;;;;;;;;;;14.50;99.90;;;;;;5052703;28;20397;-34
2023/03/24 10:50:31;;;;;;;;;;;14.40;99.90;;;;;;5055379;28;19928;-34
2023/03/24 10:52:58;;;;;;;;;;;14.20;99.90;;;;;;5054878;28;19921;-34
2023/03/24 10:55:30;;;;;;;;;;;14.10;99.90;;;;;;5051796;28;19978;-35
2023/03/24 10:57:57;;;;;;;;;;;14.00;99.90;;;;;;5049377;28;19967;-34
2023/03/24 11:00:28;;;;;;;;;;;14.10;99.90;;;;;;5050838;28;20030;-35
2023/03/24 11:02:57;;;;;;;;;;;14.30;99.90;;;;;;5051302;28;19921;-35
2023/03/24 11:05:28;;;;;;;;;;;14.40;99.90;;;;;;5050023;28;19933;-35
2023/03/24 11:07:55;;;;;;;;;;;14.60;99.90;;;;;;5047772;28;19975;-35
2023/03/24 11:10:24;;;;;;;;;;;14.80;99.90;;;;;;5050624;28;19962;-35
2023/03/24 11:13:01;;;;;;;;;;;15.00;99.90;;;;;;5049530;28;20379;-34
2023/03/24 11:15:29;;;;;;;;;;;15.00;99.90;;;;;;5050209;28;19927;-34
2023/03/24 11:17:56;;;;;;;;;;;15.00;99.90;;;;;;5053555;28;19939;-34
2023/03/24 11:20:29;;;;;;;;;;;15.10;99.90;;;;;;5050205;28;19966;-35
2023/03/24 11:22:56;;;;;;;;;;;15.10;99.90;;;;;;5049159;28;19921;-35
2023/03/24 11:25:25;;;;;;;;;;;15.20;99.90;;;;;;5051933;28;20291;-34
2023/03/24 11:27:52;;;;;;;;;;;15.40;99.90;;;;;;5064615;28;20191;-34
2023/03/24 11:30:18;;;;;;;;;;;15.40;99.90;;;;;;5071449;28;20261;-34
2023/03/24 11:32:46;;;;;;;;;;;15.50;99.90;;;;;;5069565;28;20413;-34
2023/03/24 11:35:16;;;;;;;;;;;15.60;99.90;;;;;;5048458;28;20000;-34
2023/03/24 11:37:43;;;;;;;;;;;15.70;99.90;;;;;;5050426;28;19925;-34
2023/03/24 11:40:16;;;;;;;;;;;15.70;99.90;;;;;;5052099;28;19920;-34
2023/03/24 11:42:43;;;;;;;;;;;15.70;99.90;;;;;;5050647;28;19928;-35
2023/03/24 11:45:19;;;;;;;;;;;15.60;99.90;;;;;;5050159;28;19968;-35
2023/03/24 11:47:47;;;;;;;;;;;15.60;99.90;;;;;;5049935;28;19921;-34
2023/03/24 11:50:14;;;;;;;;;;;15.60;99.90;;;;;;5051190;28;20442;-34
2023/03/24 11:52:43;;;;;;;;;;;15.60;99.90;;;;;;5052070;28;19958;-34
2023/03/24 11:55:13;;;;;;;;;;;15.60;99.90;;;;;;5042580;28;19929;-35
2023/03/24 11:57:41;;;;;;;;;;;15.60;99.90;;;;;;5048799;28;19921;-35
2023/03/24 12:00:08;;;;;;;;;;;15.60;99.90;;;;;;5051762;28;19967;-35
2023/03/24 12:02:40;;;;;;;;;;;15.70;99.90;;;;;;5048513;28;20288;-34
2023/03/24 12:05:19;;;;;;;;;;;15.70;99.90;;;;;;5050333;28;19928;-35
2023/03/24 12:07:52;;;;;;;;;;;15.90;99.90;;;;;;5049923;28;19927;-34
2023/03/24 12:10:21;;;;;;;;;;;16.00;99.90;;;;;;5057346;28;19942;-35
2023/03/24 12:12:50;;;;;;;;;;;16.00;99.90;;;;;;5042507;28;19921;-35
2023/03/24 12:15:22;;;;;;;;;;;15.90;99.90;;;;;;5054138;28;19925;-35
2023/03/24 12:17:50;;;;;;;;;;;16.00;99.90;;;;;;5052226;28;19979;-35
2023/03/24 12:20:20;;;;;;;;;;;16.00;99.90;;;;;;5041919;28;20411;-35
2023/03/24 12:22:49;;;;;;;;;;;16.00;99.90;;;;;;5039610;28;19928;-35
2023/03/24 12:25:29;;;;;;;;;;;15.90;99.90;;;;;;5049383;28;19927;-35
2023/03/24 12:27:59;;;;;;;;;;;15.90;99.90;;;;;;5050632;28;19928;-35
2023/03/24 12:30:27;;;;;;;;;;;16.10;99.80;;;;;;5051379;28;20354;-34
2023/03/24 12:32:56;;;;;;;;;;;16.20;98.40;;;;;;5049632;28;19966;-35
2023/03/24 12:35:30;;;;;;;;;;;16.30;98.00;;;;;;5051581;28;19986;-35
2023/03/24 12:38:00;;;;;;;;;;;16.40;97.40;;;;;;5050756;28;19928;-35
2023/03/24 12:40:37;;;;;;;;;;;16.50;98.10;;;;;;5049561;28;19999;-35
2023/03/24 12:43:05;;;;;;;;;;;16.50;96.70;;;;;;5056727;28;19928;-35
2023/03/24 12:45:34;;;;;;;;;;;16.40;95.20;;;;;;5055682;28;20326;-35
2023/03/24 12:48:22;;;;;;;;;;;16.20;94.90;;;;;;5053950;28;20414;-35
2023/03/24 12:50:53;;;;;;;;;;;16.10;97.60;;;;;;5054378;28;19975;-35
2023/03/24 12:53:35;;;;;;;;;;;16.00;97.60;;;;;;5051663;28;19921;-36
2023/03/24 12:56:03;;;;;;;;;;;16.00;98.80;;;;;;5050859;28;19929;-35
2023/03/24 12:58:31;;;;;;;;;;;16.10;99.90;;;;;;5069854;28;19967;-36
2023/03/24 13:01:00;;;;;;;;;;;16.10;99.50;;;;;;5053611;28;19928;-35
2023/03/24 13:03:27;;;;;;;;;;;16.20;99.90;;;;;;5053979;28;19955;-35
2023/03/24 13:05:56;;;;;;;;;;;16.20;99.90;;;;;;5054553;28;19975;-35
2023/03/24 13:08:28;;;;;;;;;;;16.10;97.60;;;;;;5055094;28;19921;-36
2023/03/24 13:10:58;;;;;;;;;;;16.00;97.90;;;;;;5049456;28;20468;-35
2023/03/24 13:13:27;;;;;;;;;;;15.90;98.80;;;;;;5054632;28;19927;-35
2023/03/24 13:15:55;;;;;;;;;;;15.80;97.70;;;;;;5055128;28;19974;-35
2023/03/24 13:18:25;;;;;;;;;;;15.80;99.90;;;;;;5053700;28;19960;-36
2023/03/24 13:20:53;;;;;;;;;;;15.70;99.50;;;;;;5050182;28;20002;-35
2023/03/24 13:23:26;;;;;;;;;;;15.90;98.00;;;;;;5054310;28;19924;-35
2023/03/24 13:25:53;;;;;;;;;;;16.00;98.60;;;;;;5054353;28;19971;-35
2023/03/24 13:28:21;;;;;;;;;;;16.10;96.20;;;;;;5054928;28;20005;-36
2023/03/24 13:30:48;;;;;;;;;;;16.00;96.90;;;;;;5054825;28;19956;-36
2023/03/24 13:33:15;;;;;;;;;;;16.00;97.80;;;;;;5055015;28;20327;-35
2023/03/24 13:35:49;;;;;;;;;;;16.00;97.50;;;;;;5053560;28;20380;-35
2023/03/24 13:38:16;;;;;;;;;;;16.00;98.30;;;;;;5055258;28;19975;-35
2023/03/24 13:40:45;;;;;;;;;;;16.00;97.60;;;;;;5053878;28;20389;-37
2023/03/24 13:43:12;;;;;;;;;;;16.00;98.30;;;;;;5054601;28;19982;-36
2023/03/24 13:45:40;;;;;;;;;;;16.10;97.70;;;;;;5053895;28;20332;-36
2023/03/24 13:48:17;;;;;;;;;;;16.20;98.30;;;;;;5054449;28;20373;-36
2023/03/24 13:50:48;;;;;;;;;;;16.10;99.30;;;;;;5054698;28;19972;-36
2023/03/24 13:53:15;;;;;;;;;;;16.10;98.30;;;;;;5053532;28;19927;-35
2023/03/24 13:55:46;;;;;;;;;;;16.00;98.90;;;;;;5053181;28;19955;-35
2023/03/24 13:58:14;;;;;;;;;;;15.80;99.70;;;;;;5052549;28;19966;-35
2023/03/24 14:00:55;;;;;;;;;;;15.70;99.40;;;;;;5066595;28;19928;-36
2023/03/24 14:03:31;;;;;;;;;;;15.60;99.80;;;;;;5030181;28;20349;-35
2023/03/24 14:05:58;;;;;;;;;;;15.50;99.90;;;;;;5052330;28;20434;-36
2023/03/24 14:08:34;;;;;;;;;;;15.40;99.90;;;;;;5052395;28;19990;-35
2023/03/24 14:11:02;;;;;;;;;;;15.30;99.90;;;;;;5052017;28;19983;-36
2023/03/24 14:13:44;;;;;;;;;;;15.40;99.90;;;;;;5051248;28;20008;-35
2023/03/24 14:16:29;;;;;;;;;;;15.40;99.90;;;;;;5066323;28;19951;-35
2023/03/24 14:19:07;;;;;;;;;;;15.40;99.90;;;;;;5053280;28;19970;-36
2023/03/24 14:21:36;;;;;;;;;;;15.40;99.90;;;;;;5051990;28;19925;-35
2023/03/24 14:24:03;;;;;;;;;;;15.20;99.90;;;;;;5052108;28;19927;-35
2023/03/24 14:26:32;;;;;;;;;;;15.10;99.90;;;;;;5057068;28;20304;-36